sensor_id;sensor_type;location;lat;lon;timestamp;pressure;altitude;pressure_sealevel;temperature;humidity
69570;BME280;56781;42.292;23.146;2023-01-28T00:01:54;94933.94;;;-0.37;92.70
69570;BME280;56781;42.292;23.146;2023-01-28T00:04:21;94916.13;;;-0.52;93.15
69570;BME280;56781;42.292;23.146;2023-01-28T00:06:49;94932.38;;;-0.33;92.56
69570;BME280;56781;42.292;23.146;2023-01-28T00:09:16;94959.84;;;-0.24;92.95
69570;BME280;56781;42.292;23.146;2023-01-28T00:11:44;94928.78;;;-0.49;93.30
69570;BME280;56781;42.292;23.146;2023-01-28T00:14:11;94953.13;;;-0.37;93.95
69570;BME280;56781;42.292;23.146;2023-01-28T00:16:39;94956.53;;;-0.36;93.72
69570;BME280;56781;42.292;23.146;2023-01-28T00:19:06;94941.81;;;-0.37;93.65
69570;BME280;56781;42.292;23.146;2023-01-28T00:21:33;94937.41;;;-0.54;93.92
69570;BME280;56781;42.292;23.146;2023-01-28T00:24:00;94959.38;;;-0.43;94.30
69570;BME280;56781;42.292;23.146;2023-01-28T00:26:27;94970.97;;;-0.39;93.91
69570;BME280;56781;42.292;23.146;2023-01-28T00:28:55;94959.31;;;-0.48;94.92
69570;BME280;56781;42.292;23.146;2023-01-28T00:31:24;94963.28;;;-0.46;95.71
69570;BME280;56781;42.292;23.146;2023-01-28T00:33:54;94955.25;;;-0.56;96.04
69570;BME280;56781;42.292;23.146;2023-01-28T00:36:23;94960.03;;;-0.53;95.90
69570;BME280;56781;42.292;23.146;2023-01-28T00:38:56;94970.69;;;-0.42;94.58
69570;BME280;56781;42.292;23.146;2023-01-28T00:41:27;94960.50;;;-0.56;95.66
69570;BME280;56781;42.292;23.146;2023-01-28T00:43:54;94966.41;;;-0.49;95.56
69570;BME280;56781;42.292;23.146;2023-01-28T00:46:22;94957.03;;;-0.61;96.38
69570;BME280;56781;42.292;23.146;2023-01-28T00:48:51;94993.53;;;-0.43;96.27
69570;BME280;56781;42.292;23.146;2023-01-28T00:51:18;94974.16;;;-0.59;96.52
69570;BME280;56781;42.292;23.146;2023-01-28T00:53:46;94978.97;;;-0.51;95.78
69570;BME280;56781;42.292;23.146;2023-01-28T00:56:16;94967.91;;;-0.53;95.66
69570;BME280;56781;42.292;23.146;2023-01-28T00:58:43;94980.56;;;-0.50;95.83
69570;BME280;56781;42.292;23.146;2023-01-28T01:01:20;94961.78;;;-0.58;94.98
69570;BME280;56781;42.292;23.146;2023-01-28T01:03:48;94991.50;;;-0.36;94.93
69570;BME280;56781;42.292;23.146;2023-01-28T01:06:24;94995.97;;;-0.36;94.40
69570;BME280;56781;42.292;23.146;2023-01-28T01:08:51;94966.84;;;-0.52;94.17
69570;BME280;56781;42.292;23.146;2023-01-28T01:11:18;94965.56;;;-0.49;94.17
69570;BME280;56781;42.292;23.146;2023-01-28T01:13:50;94982.16;;;-0.49;94.81
69570;BME280;56781;42.292;23.146;2023-01-28T01:16:18;94967.19;;;-0.48;94.51
69570;BME280;56781;42.292;23.146;2023-01-28T01:18:45;94983.81;;;-0.42;94.38
69570;BME280;56781;42.292;23.146;2023-01-28T01:21:17;94983.19;;;-0.50;94.55
69570;BME280;56781;42.292;23.146;2023-01-28T01:23:45;95003.59;;;-0.18;94.97
69570;BME280;56781;42.292;23.146;2023-01-28T01:26:13;94971.75;;;-0.38;94.14
69570;BME280;56781;42.292;23.146;2023-01-28T01:28:40;94984.47;;;-0.30;95.28
69570;BME280;56781;42.292;23.146;2023-01-28T01:31:16;94964.84;;;-0.45;95.62
69570;BME280;56781;42.292;23.146;2023-01-28T01:33:45;94978.84;;;-0.39;95.06
69570;BME280;56781;42.292;23.146;2023-01-28T01:36:15;95004.19;;;-0.11;94.81
69570;BME280;56781;42.292;23.146;2023-01-28T01:38:42;94983.31;;;-0.39;94.26
69570;BME280;56781;42.292;23.146;2023-01-28T01:41:29;95001.09;;;-0.30;94.03
69570;BME280;56781;42.292;23.146;2023-01-28T01:43:59;94984.38;;;-0.40;94.85
69570;BME280;56781;42.292;23.146;2023-01-28T01:46:38;94964.78;;;-0.50;94.22
69570;BME280;56781;42.292;23.146;2023-01-28T01:49:36;94994.22;;;-0.31;94.14
69570;BME280;56781;42.292;23.146;2023-01-28T01:52:08;94961.19;;;-0.43;94.14
69570;BME280;56781;42.292;23.146;2023-01-28T01:54:38;95008.78;;;-0.23;94.63
69570;BME280;56781;42.292;23.146;2023-01-28T01:57:09;94975.13;;;-0.43;94.13
69570;BME280;56781;42.292;23.146;2023-01-28T01:59:39;94972.44;;;-0.48;94.02
69570;BME280;56781;42.292;23.146;2023-01-28T02:02:09;94967.25;;;-0.43;93.38
69570;BME280;56781;42.292;23.146;2023-01-28T02:04:42;94966.84;;;-0.52;93.85
69570;BME280;56781;42.292;23.146;2023-01-28T02:07:13;94968.97;;;-0.54;94.24
69570;BME280;56781;42.292;23.146;2023-01-28T02:09:41;95003.94;;;-0.31;94.31
69570;BME280;56781;42.292;23.146;2023-01-28T02:12:16;94972.59;;;-0.55;94.97
69570;BME280;56781;42.292;23.146;2023-01-28T02:14:47;94999.09;;;-0.39;94.02
69570;BME280;56781;42.292;23.146;2023-01-28T02:17:17;94981.91;;;-0.47;94.09
69570;BME280;56781;42.292;23.146;2023-01-28T02:19:52;94970.53;;;-0.53;94.95
69570;BME280;56781;42.292;23.146;2023-01-28T02:22:42;94999.25;;;-0.29;94.63
69570;BME280;56781;42.292;23.146;2023-01-28T02:25:53;94996.53;;;-0.34;93.85
69570;BME280;56781;42.292;23.146;2023-01-28T02:28:33;94983.75;;;-0.48;94.39
69570;BME280;56781;42.292;23.146;2023-01-28T02:31:26;94990.09;;;-0.43;94.28
69570;BME280;56781;42.292;23.146;2023-01-28T02:39:11;94974.44;;;-0.55;95.09
69570;BME280;56781;42.292;23.146;2023-01-28T02:41:51;94984.25;;;-0.51;95.09
69570;BME280;56781;42.292;23.146;2023-01-28T02:44:21;94977.00;;;-0.60;95.02
69570;BME280;56781;42.292;23.146;2023-01-28T02:46:51;94978.91;;;-0.56;94.70
69570;BME280;56781;42.292;23.146;2023-01-28T02:49:53;94971.31;;;-0.52;94.61
69570;BME280;56781;42.292;23.146;2023-01-28T02:56:01;94977.38;;;-0.52;95.07
69570;BME280;56781;42.292;23.146;2023-01-28T03:04:19;94969.91;;;-0.60;94.02
69570;BME280;56781;42.292;23.146;2023-01-28T03:06:51;94990.09;;;-0.43;94.75
69570;BME280;56781;42.292;23.146;2023-01-28T03:09:21;94986.31;;;-0.53;94.87
69570;BME280;56781;42.292;23.146;2023-01-28T03:12:15;95005.88;;;-0.43;94.90
69570;BME280;56781;42.292;23.146;2023-01-28T03:15:09;95014.31;;;-0.41;95.51
69570;BME280;56781;42.292;23.146;2023-01-28T03:18:12;94993.16;;;-0.52;95.23
69570;BME280;56781;42.292;23.146;2023-01-28T03:23:56;94987.69;;;-0.67;95.81
69570;BME280;56781;42.292;23.146;2023-01-28T03:29:53;94972.97;;;-0.68;95.24
69570;BME280;56781;42.292;23.146;2023-01-28T03:32:41;94993.63;;;-0.55;95.21
69570;BME280;56781;42.292;23.146;2023-01-28T03:35:30;94993.97;;;-0.51;95.92
69570;BME280;56781;42.292;23.146;2023-01-28T03:38:18;94993.78;;;-0.45;96.03
69570;BME280;56781;42.292;23.146;2023-01-28T03:40:56;95006.44;;;-0.41;95.70
69570;BME280;56781;42.292;23.146;2023-01-28T03:43:24;95006.19;;;-0.40;95.34
69570;BME280;56781;42.292;23.146;2023-01-28T03:45:51;95007.47;;;-0.42;95.79
69570;BME280;56781;42.292;23.146;2023-01-28T03:48:19;95012.63;;;-0.31;96.14
69570;BME280;56781;42.292;23.146;2023-01-28T03:50:47;94998.06;;;-0.38;95.33
69570;BME280;56781;42.292;23.146;2023-01-28T03:53:15;95037.59;;;-0.11;94.68
69570;BME280;56781;42.292;23.146;2023-01-28T03:55:43;95035.44;;;-0.14;95.16
69570;BME280;56781;42.292;23.146;2023-01-28T03:58:11;95024.13;;;-0.15;94.91
69570;BME280;56781;42.292;23.146;2023-01-28T04:00:39;95042.25;;;-0.18;95.88
69570;BME280;56781;42.292;23.146;2023-01-28T04:03:11;95012.81;;;-0.37;96.55
69570;BME280;56781;42.292;23.146;2023-01-28T04:05:44;95025.88;;;-0.42;97.03
69570;BME280;56781;42.292;23.146;2023-01-28T04:08:12;95019.03;;;-0.43;96.59
69570;BME280;56781;42.292;23.146;2023-01-28T04:10:39;95046.72;;;-0.19;95.09
69570;BME280;56781;42.292;23.146;2023-01-28T04:13:06;95026.88;;;-0.27;96.04
69570;BME280;56781;42.292;23.146;2023-01-28T04:15:33;95043.81;;;-0.17;97.23
69570;BME280;56781;42.292;23.146;2023-01-28T04:18:02;95051.22;;;-0.14;98.08
69570;BME280;56781;42.292;23.146;2023-01-28T04:20:29;95054.19;;;-0.11;97.17
69570;BME280;56781;42.292;23.146;2023-01-28T04:22:56;95061.38;;;-0.23;96.59
69570;BME280;56781;42.292;23.146;2023-01-28T04:25:23;95035.28;;;-0.47;97.23
69570;BME280;56781;42.292;23.146;2023-01-28T04:27:50;95038.97;;;-0.48;97.49
69570;BME280;56781;42.292;23.146;2023-01-28T04:30:18;95065.13;;;-0.36;97.61
69570;BME280;56781;42.292;23.146;2023-01-28T04:32:45;95063.31;;;-0.35;98.26
69570;BME280;56781;42.292;23.146;2023-01-28T04:35:13;95069.13;;;-0.33;97.59
69570;BME280;56781;42.292;23.146;2023-01-28T04:37:41;95057.44;;;-0.42;96.29
69570;BME280;56781;42.292;23.146;2023-01-28T04:40:09;95073.06;;;-0.53;96.50
69570;BME280;56781;42.292;23.146;2023-01-28T04:42:36;95038.28;;;-0.77;97.13
69570;BME280;56781;42.292;23.146;2023-01-28T04:45:04;95041.28;;;-0.68;97.00
69570;BME280;56781;42.292;23.146;2023-01-28T04:47:31;95045.13;;;-0.59;96.34
69570;BME280;56781;42.292;23.146;2023-01-28T04:49:59;95044.66;;;-0.73;96.48
69570;BME280;56781;42.292;23.146;2023-01-28T04:52:26;95069.63;;;-0.53;95.02
69570;BME280;56781;42.292;23.146;2023-01-28T04:54:53;95045.13;;;-0.76;94.91
69570;BME280;56781;42.292;23.146;2023-01-28T04:57:20;95072.50;;;-0.55;94.28
69570;BME280;56781;42.292;23.146;2023-01-28T04:59:47;95082.53;;;-0.52;94.51
69570;BME280;56781;42.292;23.146;2023-01-28T05:02:14;95071.41;;;-0.59;94.14
69570;BME280;56781;42.292;23.146;2023-01-28T05:04:41;95089.00;;;-0.42;93.79
69570;BME280;56781;42.292;23.146;2023-01-28T05:07:08;95065.00;;;-0.63;93.79
69570;BME280;56781;42.292;23.146;2023-01-28T05:09:35;95065.00;;;-0.63;94.33
69570;BME280;56781;42.292;23.146;2023-01-28T05:12:03;95064.22;;;-0.63;94.21
69570;BME280;56781;42.292;23.146;2023-01-28T05:14:30;95091.47;;;-0.53;93.83
69570;BME280;56781;42.292;23.146;2023-01-28T05:16:57;95051.97;;;-0.75;94.05
69570;BME280;56781;42.292;23.146;2023-01-28T05:19:24;95108.75;;;-0.57;94.34
69570;BME280;56781;42.292;23.146;2023-01-28T05:21:51;95078.56;;;-0.71;93.63
69570;BME280;56781;42.292;23.146;2023-01-28T05:24:18;95059.63;;;-0.90;93.79
69570;BME280;56781;42.292;23.146;2023-01-28T05:26:47;95082.16;;;-0.77;94.80
69570;BME280;56781;42.292;23.146;2023-01-28T05:29:14;95075.94;;;-0.88;94.32
69570;BME280;56781;42.292;23.146;2023-01-28T05:31:41;95072.53;;;-0.88;95.06
69570;BME280;56781;42.292;23.146;2023-01-28T05:34:08;95110.44;;;-0.68;94.86
69570;BME280;56781;42.292;23.146;2023-01-28T05:36:35;95099.91;;;-0.84;95.49
69570;BME280;56781;42.292;23.146;2023-01-28T05:39:02;95083.13;;;-1.00;95.89
69570;BME280;56781;42.292;23.146;2023-01-28T05:41:30;95119.03;;;-0.72;96.97
69570;BME280;56781;42.292;23.146;2023-01-28T05:43:57;95108.50;;;-0.89;97.51
69570;BME280;56781;42.292;23.146;2023-01-28T05:46:24;95136.28;;;-0.76;97.74
69570;BME280;56781;42.292;23.146;2023-01-28T05:48:51;95137.44;;;-0.72;98.06
69570;BME280;56781;42.292;23.146;2023-01-28T05:51:18;95111.94;;;-0.88;98.68
69570;BME280;56781;42.292;23.146;2023-01-28T05:53:45;95085.56;;;-1.10;99.21
69570;BME280;56781;42.292;23.146;2023-01-28T05:56:12;95106.28;;;-0.97;98.88
69570;BME280;56781;42.292;23.146;2023-01-28T05:58:39;95143.16;;;-0.75;99.48
69570;BME280;56781;42.292;23.146;2023-01-28T06:01:06;95103.00;;;-1.04;98.63
69570;BME280;56781;42.292;23.146;2023-01-28T06:03:33;95113.91;;;-0.96;98.62
69570;BME280;56781;42.292;23.146;2023-01-28T06:06:00;95108.34;;;-0.99;98.67
69570;BME280;56781;42.292;23.146;2023-01-28T06:08:28;95128.09;;;-0.80;98.63
69570;BME280;56781;42.292;23.146;2023-01-28T06:10:55;95165.72;;;-0.62;98.02
69570;BME280;56781;42.292;23.146;2023-01-28T06:13:22;95165.28;;;-0.71;98.58
69570;BME280;56781;42.292;23.146;2023-01-28T06:15:49;95162.66;;;-0.71;98.34
69570;BME280;56781;42.292;23.146;2023-01-28T06:18:16;95165.31;;;-0.54;99.26
69570;BME280;56781;42.292;23.146;2023-01-28T06:20:44;95133.34;;;-0.80;97.50
69570;BME280;56781;42.292;23.146;2023-01-28T06:23:11;95183.00;;;-0.50;96.73
69570;BME280;56781;42.292;23.146;2023-01-28T06:25:38;95165.47;;;-0.61;97.08
69570;BME280;56781;42.292;23.146;2023-01-28T06:28:05;95155.91;;;-0.67;95.16
69570;BME280;56781;42.292;23.146;2023-01-28T06:30:32;95166.03;;;-0.59;95.09
69570;BME280;56781;42.292;23.146;2023-01-28T06:33:00;95190.88;;;-0.50;95.00
69570;BME280;56781;42.292;23.146;2023-01-28T06:35:27;95166.03;;;-0.59;95.44
69570;BME280;56781;42.292;23.146;2023-01-28T06:37:54;95167.59;;;-0.58;94.32
69570;BME280;56781;42.292;23.146;2023-01-28T06:40:21;95206.81;;;-0.39;95.14
69570;BME280;56781;42.292;23.146;2023-01-28T06:42:50;95181.81;;;-0.59;93.89
69570;BME280;56781;42.292;23.146;2023-01-28T06:45:18;95199.94;;;-0.57;93.49
69570;BME280;56781;42.292;23.146;2023-01-28T06:47:45;95216.56;;;-0.40;93.48
69570;BME280;56781;42.292;23.146;2023-01-28T06:50:12;95171.59;;;-0.72;93.37
69570;BME280;56781;42.292;23.146;2023-01-28T06:52:39;95187.06;;;-0.59;93.35
69570;BME280;56781;42.292;23.146;2023-01-28T06:55:08;95186.56;;;-0.56;93.38
69570;BME280;56781;42.292;23.146;2023-01-28T06:57:38;95193.59;;;-0.45;92.91
69570;BME280;56781;42.292;23.146;2023-01-28T07:00:07;95202.66;;;-0.35;93.33
69570;BME280;56781;42.292;23.146;2023-01-28T07:02:36;95192.31;;;-0.42;92.16
69570;BME280;56781;42.292;23.146;2023-01-28T07:05:04;95188.16;;;-0.55;92.55
69570;BME280;56781;42.292;23.146;2023-01-28T07:07:32;95166.56;;;-0.74;92.88
69570;BME280;56781;42.292;23.146;2023-01-28T07:09:59;95212.25;;;-0.46;92.71
69570;BME280;56781;42.292;23.146;2023-01-28T07:12:26;95216.59;;;-0.52;92.75
69570;BME280;56781;42.292;23.146;2023-01-28T07:14:53;95210.81;;;-0.54;91.42
69570;BME280;56781;42.292;23.146;2023-01-28T07:17:21;95195.50;;;-0.57;91.80
69570;BME280;56781;42.292;23.146;2023-01-28T07:19:48;95233.13;;;-0.39;92.06
69570;BME280;56781;42.292;23.146;2023-01-28T07:22:15;95183.69;;;-0.71;92.12
69570;BME280;56781;42.292;23.146;2023-01-28T07:24:42;95256.47;;;-0.26;92.46
69570;BME280;56781;42.292;23.146;2023-01-28T07:27:09;95244.91;;;-0.25;92.57
69570;BME280;56781;42.292;23.146;2023-01-28T07:29:36;95239.88;;;-0.43;91.86
69570;BME280;56781;42.292;23.146;2023-01-28T07:32:04;95232.47;;;-0.47;91.56
69570;BME280;56781;42.292;23.146;2023-01-28T07:34:33;95242.75;;;-0.45;92.42
69570;BME280;56781;42.292;23.146;2023-01-28T07:37:03;95267.66;;;-0.19;91.57
69570;BME280;56781;42.292;23.146;2023-01-28T07:39:30;95272.56;;;-0.23;91.42
69570;BME280;56781;42.292;23.146;2023-01-28T07:41:57;95234.69;;;-0.38;91.44
69570;BME280;56781;42.292;23.146;2023-01-28T07:44:24;95274.97;;;-0.21;91.01
69570;BME280;56781;42.292;23.146;2023-01-28T07:46:51;95251.31;;;-0.38;91.56
69570;BME280;56781;42.292;23.146;2023-01-28T07:49:19;95266.53;;;-0.23;91.59
69570;BME280;56781;42.292;23.146;2023-01-28T07:51:46;95241.88;;;-0.34;90.76
69570;BME280;56781;42.292;23.146;2023-01-28T07:54:16;95263.72;;;-0.16;90.84
69570;BME280;56781;42.292;23.146;2023-01-28T07:56:43;95264.06;;;-0.13;91.45
69570;BME280;56781;42.292;23.146;2023-01-28T07:59:10;95241.88;;;-0.17;89.83
69570;BME280;56781;42.292;23.146;2023-01-28T08:01:37;95254.91;;;-0.10;90.60
69570;BME280;56781;42.292;23.146;2023-01-28T08:04:05;95266.88;;;-0.03;89.74
69570;BME280;56781;42.292;23.146;2023-01-28T08:06:32;95257.31;;;0.08;90.47
69570;BME280;56781;42.292;23.146;2023-01-28T08:09:04;95280.88;;;0.20;89.46
69570;BME280;56781;42.292;23.146;2023-01-28T08:11:37;95279.34;;;0.24;89.09
69570;BME280;56781;42.292;23.146;2023-01-28T08:14:04;95284.16;;;0.10;88.90
69570;BME280;56781;42.292;23.146;2023-01-28T08:16:32;95268.84;;;-0.10;89.55
69570;BME280;56781;42.292;23.146;2023-01-28T08:18:59;95260.78;;;-0.20;89.21
69570;BME280;56781;42.292;23.146;2023-01-28T08:21:26;95272.97;;;-0.14;89.93
69570;BME280;56781;42.292;23.146;2023-01-28T08:23:53;95284.16;;;-0.07;89.80
69570;BME280;56781;42.292;23.146;2023-01-28T08:26:21;95303.94;;;0.13;89.37
69570;BME280;56781;42.292;23.146;2023-01-28T08:28:48;95305.28;;;0.15;88.78
69570;BME280;56781;42.292;23.146;2023-01-28T08:31:17;95301.53;;;0.28;89.00
69570;BME280;56781;42.292;23.146;2023-01-28T08:33:44;95292.91;;;0.16;88.57
69570;BME280;56781;42.292;23.146;2023-01-28T08:36:11;95262.31;;;0.10;88.72
69570;BME280;56781;42.292;23.146;2023-01-28T08:38:38;95301.84;;;0.32;88.25
69570;BME280;56781;42.292;23.146;2023-01-28T08:41:06;95289.47;;;0.32;88.77
69570;BME280;56781;42.292;23.146;2023-01-28T08:43:33;95279.59;;;0.39;88.72
69570;BME280;56781;42.292;23.146;2023-01-28T08:46:00;95280.22;;;0.47;87.28
69570;BME280;56781;42.292;23.146;2023-01-28T08:48:27;95292.69;;;0.73;88.29
69570;BME280;56781;42.292;23.146;2023-01-28T08:50:57;95303.84;;;0.80;87.71
69570;BME280;56781;42.292;23.146;2023-01-28T08:53:25;95273.56;;;0.61;86.66
69570;BME280;56781;42.292;23.146;2023-01-28T08:55:53;95281.28;;;0.68;86.73
69570;BME280;56781;42.292;23.146;2023-01-28T08:58:21;95311.91;;;0.91;87.12
69570;BME280;56781;42.292;23.146;2023-01-28T09:00:49;95283.28;;;0.77;86.17
69570;BME280;56781;42.292;23.146;2023-01-28T09:03:16;95316.06;;;1.08;85.82
69570;BME280;56781;42.292;23.146;2023-01-28T09:05:44;95285.56;;;1.13;85.83
69570;BME280;56781;42.292;23.146;2023-01-28T09:08:13;95297.19;;;0.95;85.57
69570;BME280;56781;42.292;23.146;2023-01-28T09:10:41;95288.25;;;0.96;85.89
69570;BME280;56781;42.292;23.146;2023-01-28T09:13:11;95277.78;;;1.01;85.27
69570;BME280;56781;42.292;23.146;2023-01-28T09:15:39;95290.69;;;1.02;84.26
69570;BME280;56781;42.292;23.146;2023-01-28T09:18:06;95303.88;;;1.24;84.17
69570;BME280;56781;42.292;23.146;2023-01-28T09:20:33;95280.88;;;0.98;83.90
69570;BME280;56781;42.292;23.146;2023-01-28T09:23:01;95294.13;;;1.25;84.86
69570;BME280;56781;42.292;23.146;2023-01-28T09:25:29;95304.63;;;1.69;84.94
69570;BME280;56781;42.292;23.146;2023-01-28T09:27:56;95290.53;;;1.58;82.82
69570;BME280;56781;42.292;23.146;2023-01-28T09:30:24;95292.78;;;1.44;83.90
69570;BME280;56781;42.292;23.146;2023-01-28T09:32:53;95290.22;;;1.54;84.08
69570;BME280;56781;42.292;23.146;2023-01-28T09:35:21;95296.25;;;1.50;84.59
69570;BME280;56781;42.292;23.146;2023-01-28T09:37:48;95299.78;;;1.88;84.20
69570;BME280;56781;42.292;23.146;2023-01-28T09:40:35;95299.47;;;1.84;83.26
69570;BME280;56781;42.292;23.146;2023-01-28T09:45:58;95292.06;;;1.54;83.36
69570;BME280;56781;42.292;23.146;2023-01-28T09:48:37;95284.31;;;1.42;82.85
69570;BME280;56781;42.292;23.146;2023-01-28T09:51:09;95305.16;;;1.71;82.59
69570;BME280;56781;42.292;23.146;2023-01-28T09:53:42;95316.59;;;1.76;82.46
69570;BME280;56781;42.292;23.146;2023-01-28T09:56:14;95275.03;;;1.40;82.27
69570;BME280;56781;42.292;23.146;2023-01-28T09:58:44;95263.09;;;1.59;82.16
69570;BME280;56781;42.292;23.146;2023-01-28T10:01:35;95291.94;;;1.98;81.84
69570;BME280;56781;42.292;23.146;2023-01-28T10:04:11;95295.84;;;2.17;81.05
69570;BME280;56781;42.292;23.146;2023-01-28T10:09:47;95279.47;;;2.20;79.05
69570;BME280;56781;42.292;23.146;2023-01-28T10:15:23;95298.78;;;2.26;80.29
69570;BME280;56781;42.292;23.146;2023-01-28T10:17:58;95293.03;;;2.34;79.60
69570;BME280;56781;42.292;23.146;2023-01-28T10:20:54;95288.09;;;2.43;79.31
69570;BME280;56781;42.292;23.146;2023-01-28T10:23:45;95265.97;;;2.54;78.02
69570;BME280;56781;42.292;23.146;2023-01-28T10:26:21;95286.41;;;2.69;77.47
69570;BME280;56781;42.292;23.146;2023-01-28T10:28:53;95257.81;;;2.61;77.80
69570;BME280;56781;42.292;23.146;2023-01-28T10:31:22;95284.69;;;2.95;77.64
69570;BME280;56781;42.292;23.146;2023-01-28T10:33:53;95257.75;;;3.03;76.49
69570;BME280;56781;42.292;23.146;2023-01-28T10:36:21;95249.41;;;3.47;74.12
69570;BME280;56781;42.292;23.146;2023-01-28T10:38:50;95284.81;;;3.21;75.46
69570;BME280;56781;42.292;23.146;2023-01-28T10:41:20;95255.34;;;2.97;77.49
69570;BME280;56781;42.292;23.146;2023-01-28T10:43:48;95250.75;;;2.77;78.60
69570;BME280;56781;42.292;23.146;2023-01-28T10:46:21;95276.34;;;3.24;77.97
69570;BME280;56781;42.292;23.146;2023-01-28T10:51:40;95241.25;;;2.81;75.11
69570;BME280;56781;42.292;23.146;2023-01-28T10:54:19;95259.81;;;2.86;78.14
69570;BME280;56781;42.292;23.146;2023-01-28T10:56:49;95238.97;;;2.42;78.04
69570;BME280;56781;42.292;23.146;2023-01-28T10:59:28;95250.56;;;2.41;80.31
69570;BME280;56781;42.292;23.146;2023-01-28T11:02:01;95246.44;;;2.60;78.04
69570;BME280;56781;42.292;23.146;2023-01-28T11:04:34;95273.16;;;2.64;78.04
69570;BME280;56781;42.292;23.146;2023-01-28T11:07:15;95241.84;;;2.40;79.75
69570;BME280;56781;42.292;23.146;2023-01-28T11:09:50;95246.88;;;2.42;79.03
69570;BME280;56781;42.292;23.146;2023-01-28T11:12:26;95264.06;;;2.44;81.74
69570;BME280;56781;42.292;23.146;2023-01-28T11:14:58;95260.66;;;2.12;80.71
69570;BME280;56781;42.292;23.146;2023-01-28T11:17:32;95238.41;;;1.70;80.76
69570;BME280;56781;42.292;23.146;2023-01-28T11:20:20;95242.88;;;1.70;80.25
69570;BME280;56781;42.292;23.146;2023-01-28T11:22:48;95224.25;;;1.82;81.29
69570;BME280;56781;42.292;23.146;2023-01-28T11:25:31;95272.53;;;2.09;79.65
69570;BME280;56781;42.292;23.146;2023-01-28T11:28:01;95231.53;;;2.02;79.96
69570;BME280;56781;42.292;23.146;2023-01-28T11:30:32;95217.75;;;1.94;80.16
69570;BME280;56781;42.292;23.146;2023-01-28T11:33:37;95224.53;;;2.17;79.63
69570;BME280;56781;42.292;23.146;2023-01-28T11:36:17;95231.53;;;2.44;79.43
69570;BME280;56781;42.292;23.146;2023-01-28T11:38:58;95254.97;;;2.73;78.95
69570;BME280;56781;42.292;23.146;2023-01-28T11:41:34;95258.03;;;3.02;78.46
69570;BME280;56781;42.292;23.146;2023-01-28T11:44:20;95225.41;;;2.81;76.45
69570;BME280;56781;42.292;23.146;2023-01-28T11:52:49;95247.53;;;2.64;79.38
69570;BME280;56781;42.292;23.146;2023-01-28T11:58:21;95254.34;;;2.60;79.04
69570;BME280;56781;42.292;23.146;2023-01-28T12:20:55;95222.16;;;1.84;79.58
69570;BME280;56781;42.292;23.146;2023-01-28T12:23:59;95247.78;;;2.20;79.84
69570;BME280;56781;42.292;23.146;2023-01-28T12:27:08;95246.84;;;2.37;80.08
69570;BME280;56781;42.292;23.146;2023-01-28T12:30:05;95256.28;;;2.28;79.91
69570;BME280;56781;42.292;23.146;2023-01-28T12:35:39;95246.84;;;2.37;79.68
69570;BME280;56781;42.292;23.146;2023-01-28T12:38:47;95223.19;;;2.15;78.24
69570;BME280;56781;42.292;23.146;2023-01-28T12:41:21;95229.34;;;2.26;78.16
69570;BME280;56781;42.292;23.146;2023-01-28T12:44:07;95228.28;;;2.27;77.55
69570;BME280;56781;42.292;23.146;2023-01-28T12:49:20;95239.31;;;2.18;78.79
69570;BME280;56781;42.292;23.146;2023-01-28T12:51:59;95226.81;;;2.04;78.48
69570;BME280;56781;42.292;23.146;2023-01-28T12:57:22;95238.16;;;2.04;79.34
69570;BME280;56781;42.292;23.146;2023-01-28T13:00:22;95247.19;;;2.13;79.77
69570;BME280;56781;42.292;23.146;2023-01-28T13:06:07;95272.16;;;2.33;80.08
69570;BME280;56781;42.292;23.146;2023-01-28T13:08:36;95259.72;;;2.28;80.82
69570;BME280;56781;42.292;23.146;2023-01-28T13:11:04;95259.13;;;2.58;80.43
69570;BME280;56781;42.292;23.146;2023-01-28T13:13:37;95285.56;;;2.58;78.46
69570;BME280;56781;42.292;23.146;2023-01-28T13:16:07;95286.06;;;2.55;78.31
69570;BME280;56781;42.292;23.146;2023-01-28T13:23:45;95280.63;;;2.77;78.56
69570;BME280;56781;42.292;23.146;2023-01-28T13:28:50;95265.34;;;2.89;76.61
69570;BME280;56781;42.292;23.146;2023-01-28T13:31:21;95262.28;;;2.60;76.57
69570;BME280;56781;42.292;23.146;2023-01-28T13:36:35;95269.03;;;2.41;75.98
69570;BME280;56781;42.292;23.146;2023-01-28T13:41:40;95274.94;;;2.53;77.49
69570;BME280;56781;42.292;23.146;2023-01-28T13:44:30;95306.09;;;2.51;77.49
69570;BME280;56781;42.292;23.146;2023-01-28T13:47:20;95303.94;;;2.43;78.79
69570;BME280;56781;42.292;23.146;2023-01-28T13:50:00;95275.78;;;2.21;79.77
69570;BME280;56781;42.292;23.146;2023-01-28T13:52:31;95298.00;;;2.26;78.71
69570;BME280;56781;42.292;23.146;2023-01-28T13:55:15;95294.72;;;2.13;78.62
69570;BME280;56781;42.292;23.146;2023-01-28T14:00:55;95331.78;;;2.24;79.35
69570;BME280;56781;42.292;23.146;2023-01-28T14:03:50;95309.50;;;2.09;80.38
69570;BME280;56781;42.292;23.146;2023-01-28T14:07:01;95332.28;;;2.20;79.10
69570;BME280;56781;42.292;23.146;2023-01-28T14:15:42;95332.59;;;1.97;81.38
69570;BME280;56781;42.292;23.146;2023-01-28T14:18:24;95338.13;;;1.95;82.60
69570;BME280;56781;42.292;23.146;2023-01-28T14:20:54;95317.16;;;1.84;81.03
69570;BME280;56781;42.292;23.146;2023-01-28T14:23:23;95330.41;;;1.89;82.07
69570;BME280;56781;42.292;23.146;2023-01-28T14:26:12;95314.97;;;1.75;81.09
69570;BME280;56781;42.292;23.146;2023-01-28T14:31:25;95325.81;;;1.79;82.25
69570;BME280;56781;42.292;23.146;2023-01-28T14:33:57;95328.84;;;1.88;82.35
69570;BME280;56781;42.292;23.146;2023-01-28T14:36:31;95340.75;;;1.95;81.62
69570;BME280;56781;42.292;23.146;2023-01-28T14:39:01;95319.84;;;1.89;81.53
69570;BME280;56781;42.292;23.146;2023-01-28T14:41:29;95321.34;;;1.80;81.94
69570;BME280;56781;42.292;23.146;2023-01-28T14:43:56;95326.69;;;1.85;83.29
69570;BME280;56781;42.292;23.146;2023-01-28T14:46:36;95335.06;;;1.76;83.22
69570;BME280;56781;42.292;23.146;2023-01-28T14:55:03;95348.75;;;1.51;82.94
69570;BME280;56781;42.292;23.146;2023-01-28T14:57:44;95364.78;;;1.45;84.40
69570;BME280;56781;42.292;23.146;2023-01-28T15:00:23;95360.53;;;1.44;83.89
69570;BME280;56781;42.292;23.146;2023-01-28T15:02:52;95341.78;;;1.18;85.33
69570;BME280;56781;42.292;23.146;2023-01-28T15:05:22;95371.75;;;1.34;85.52